Time;durP1;ratioP1;P1;durP2;ratioP2;P2;SDS_P1;SDS_P2;PMS_P1;PMS_P2;Temp;Humidity;BMP_temperature;BMP_pressure;BME280_temperature;BME280_humidity;BME280_pressure;Samples;Min_cycle;Max_cycle;Signal;HPM_P1;HPM_P2
2023/12/10 00:00:26;;;;;;;50.00;19.30;;;;;;;-0.59;100.00;99170.48;108277;1264;22628;-81
2023/12/10 00:03:55;;;;;;;42.30;16.40;;;;;;;-0.59;100.00;99158.02;108092;1268;22539;-81
2023/12/10 00:06:46;;;;;;;47.00;17.50;;;;;;;-0.57;100.00;99154.95;108223;1268;22595;-81
2023/12/10 00:09:37;;;;;;;41.80;16.00;;;;;;;-0.54;100.00;99153.21;107944;1268;26415;-81
2023/12/10 00:12:28;;;;;;;45.90;19.60;;;;;;;-0.53;100.00;99150.29;108136;1267;23134;-81
2023/12/10 00:15:19;;;;;;;43.40;17.00;;;;;;;-0.49;100.00;99154.02;108197;1264;22616;-81
2023/12/10 00:18:11;;;;;;;45.80;18.10;;;;;;;-0.46;100.00;99153.88;108094;1264;24461;-81
2023/12/10 00:21:02;;;;;;;47.20;18.60;;;;;;;-0.47;100.00;99140.57;108256;1260;25472;-81
2023/12/10 00:23:53;;;;;;;49.80;20.00;;;;;;;-0.46;100.00;99136.63;108317;1263;22583;-81
2023/12/10 00:26:47;;;;;;;44.60;17.80;;;;;;;-0.44;100.00;99141.59;108279;1260;22539;-81
2023/12/10 00:29:38;;;;;;;41.80;15.70;;;;;;;-0.42;100.00;99140.77;108287;1268;22659;-81
2023/12/10 00:32:31;;;;;;;42.60;16.20;;;;;;;-0.42;100.00;99132.99;108380;1264;22587;-81
2023/12/10 00:35:22;;;;;;;38.20;16.10;;;;;;;-0.41;100.00;99128.88;108393;1260;22657;-80
2023/12/10 00:38:13;;;;;;;35.20;13.80;;;;;;;-0.37;100.00;99133.17;108321;1260;25066;-81
2023/12/10 00:41:05;;;;;;;36.30;14.00;;;;;;;-0.35;100.00;99132.91;108229;1260;22542;-81
2023/12/10 00:43:56;;;;;;;34.20;13.50;;;;;;;-0.36;100.00;99132.98;108383;1260;26771;-81
2023/12/10 00:46:47;;;;;;;32.40;12.70;;;;;;;-0.36;100.00;99134.88;108403;1266;23847;-81
2023/12/10 00:49:38;;;;;;;36.50;15.60;;;;;;;-0.34;100.00;99134.90;108337;1260;23637;-81
2023/12/10 00:52:31;;;;;;;33.50;13.20;;;;;;;-0.34;100.00;99132.14;108354;1260;22935;-81
2023/12/10 00:55:22;;;;;;;34.20;13.50;;;;;;;-0.31;100.00;99133.56;108433;1260;23192;-81
2023/12/10 00:58:15;;;;;;;36.70;14.30;;;;;;;-0.30;100.00;99131.73;108196;1260;23920;-81
2023/12/10 01:01:07;;;;;;;39.60;14.00;;;;;;;-0.28;100.00;99131.61;108173;1267;22522;-81
2023/12/10 01:03:59;;;;;;;34.70;13.50;;;;;;;-0.26;100.00;99138.84;108255;1268;25303;-81
2023/12/10 01:06:51;;;;;;;33.90;13.70;;;;;;;-0.27;100.00;99140.67;108309;1268;25552;-81
2023/12/10 01:09:44;;;;;;;32.60;11.20;;;;;;;-0.25;100.00;99137.95;111454;1268;22123;-78
2023/12/10 01:12:37;;;;;;;34.40;12.30;;;;;;;-0.24;100.00;99134.09;111443;1268;22162;-79
2023/12/10 01:15:32;;;;;;;34.10;12.60;;;;;;;-0.24;100.00;99134.24;111497;1260;22372;-79
2023/12/10 01:18:24;;;;;;;33.20;12.40;;;;;;;-0.23;100.00;99141.95;111665;1260;22181;-79
2023/12/10 01:21:15;;;;;;;35.10;12.40;;;;;;;-0.21;100.00;99141.19;111487;1260;22235;-79
2023/12/10 01:24:15;;;;;;;34.80;14.30;;;;;;;-0.17;100.00;99141.48;111516;1268;23072;-79
2023/12/10 01:27:06;;;;;;;30.00;10.40;;;;;;;-0.15;100.00;99147.48;111618;1264;22101;-79
2023/12/10 01:29:59;;;;;;;33.40;12.10;;;;;;;-0.13;100.00;99153.77;111538;1264;22180;-79
2023/12/10 01:32:50;;;;;;;34.00;12.10;;;;;;;-0.11;100.00;99148.84;110844;1266;22563;-78
2023/12/10 01:35:42;;;;;;;36.50;14.30;;;;;;;-0.09;100.00;99143.85;108304;1260;25290;-80
2023/12/10 01:38:33;;;;;;;34.80;12.40;;;;;;;-0.06;100.00;99145.34;108405;1264;24291;-81
2023/12/10 01:41:25;;;;;;;35.30;12.70;;;;;;;-0.04;100.00;99140.02;108354;1268;22626;-81
2023/12/10 01:44:17;;;;;;;35.40;13.20;;;;;;;-0.04;100.00;99140.33;111495;1264;22160;-78
2023/12/10 01:47:11;;;;;;;32.60;11.80;;;;;;;-0.03;100.00;99134.83;111495;1264;22161;-79
2023/12/10 01:50:04;;;;;;;38.70;13.40;;;;;;;-0.01;100.00;99128.35;111493;1260;22316;-79
2023/12/10 01:52:58;;;;;;;30.20;11.50;;;;;;;-0.01;100.00;99133.12;111325;1264;25484;-80
2023/12/10 01:55:49;;;;;;;27.10;11.00;;;;;;;-0.00;100.00;99145.41;108965;1260;25426;-80
2023/12/10 01:58:41;;;;;;;29.20;11.60;;;;;;;0.00;100.00;99154.26;108379;1257;25258;-80
2023/12/10 02:01:32;;;;;;;33.60;12.10;;;;;;;0.00;100.00;99163.20;108571;1260;22590;-81
2023/12/10 02:04:23;;;;;;;29.10;10.80;;;;;;;0.01;100.00;99157.69;108356;1257;25354;-81
2023/12/10 02:07:15;;;;;;;29.10;10.30;;;;;;;0.00;100.00;99151.83;108402;1267;22723;-80
2023/12/10 02:10:09;;;;;;;30.60;10.60;;;;;;;-0.02;100.00;99149.29;108247;1268;22582;-81
2023/12/10 02:13:00;;;;;;;31.00;11.50;;;;;;;-0.03;100.00;99139.46;108322;1268;23171;-80
2023/12/10 02:15:51;;;;;;;30.10;11.40;;;;;;;-0.03;100.00;99139.93;108356;1268;22741;-80
2023/12/10 02:18:44;;;;;;;36.30;13.20;;;;;;;-0.04;100.00;99125.36;108259;1268;25368;-80
2023/12/10 02:21:51;;;;;;;34.20;11.80;;;;;;;-0.03;100.00;99125.58;108291;1268;23070;-80
2023/12/10 02:25:10;;;;;;;31.20;10.80;;;;;;;0.00;100.00;99115.15;108267;1267;22659;-80
2023/12/10 02:28:04;;;;;;;30.20;10.30;;;;;;;0.01;100.00;99102.18;108279;1268;25485;-80
2023/12/10 02:30:56;;;;;;;32.30;11.40;;;;;;;0.02;100.00;99102.48;108358;1268;22882;-80
2023/12/10 02:33:47;;;;;;;31.80;11.80;;;;;;;0.01;100.00;99099.98;108334;1268;22521;-81
2023/12/10 02:36:39;;;;;;;30.00;11.50;;;;;;;0.00;100.00;99099.14;108138;1268;22647;-80
2023/12/10 02:39:31;;;;;;;32.20;11.70;;;;;;;0.01;100.00;99093.17;108394;1260;24270;-80
2023/12/10 02:42:22;;;;;;;29.70;10.90;;;;;;;0.01;100.00;99091.45;108459;1266;22577;-81
2023/12/10 02:45:17;;;;;;;30.20;13.00;;;;;;;0.03;100.00;99097.05;108452;1260;24206;-81
2023/12/10 02:48:08;;;;;;;34.70;12.70;;;;;;;0.05;100.00;99094.33;108271;1266;22591;-80
2023/12/10 02:51:00;;;;;;;30.70;11.10;;;;;;;0.05;100.00;99094.23;108263;1266;25544;-80
2023/12/10 02:53:51;;;;;;;34.70;12.40;;;;;;;0.07;100.00;99088.47;108397;1266;25721;-81
2023/12/10 02:56:44;;;;;;;31.20;11.80;;;;;;;0.09;100.00;99086.83;108364;1266;22551;-81
2023/12/10 02:59:39;;;;;;;29.70;12.10;;;;;;;0.11;100.00;99082.77;108300;1268;23064;-81
2023/12/10 03:02:33;;;;;;;34.30;12.00;;;;;;;0.12;100.00;99083.37;108290;1256;25294;-81
2023/12/10 03:05:24;;;;;;;32.30;11.70;;;;;;;0.13;100.00;99083.59;108468;1243;22913;-81
2023/12/10 03:08:17;;;;;;;31.40;11.90;;;;;;;0.13;100.00;99085.61;108433;1264;22652;-80
2023/12/10 03:11:11;;;;;;;29.10;10.90;;;;;;;0.14;100.00;99091.08;108399;1264;22751;-81
2023/12/10 03:14:04;;;;;;;29.70;9.90;;;;;;;0.14;100.00;99089.12;108425;1266;25427;-80
2023/12/10 03:16:55;;;;;;;33.40;11.80;;;;;;;0.17;100.00;99087.54;108461;1260;24370;-80
2023/12/10 03:19:46;;;;;;;28.50;10.60;;;;;;;0.20;100.00;99087.23;108401;1267;23936;-80
2023/12/10 03:22:37;;;;;;;27.30;10.20;;;;;;;0.22;100.00;99089.35;108345;1257;25341;-80
2023/12/10 03:25:28;;;;;;;31.00;11.10;;;;;;;0.24;100.00;99078.30;108418;1260;22601;-80
2023/12/10 03:28:20;;;;;;;27.30;10.70;;;;;;;0.27;100.00;99079.70;108498;1260;22532;-81
2023/12/10 03:31:11;;;;;;;31.40;10.70;;;;;;;0.29;100.00;99078.55;108345;1267;22573;-80
2023/12/10 03:34:02;;;;;;;30.10;10.90;;;;;;;0.31;100.00;99085.45;108498;1266;22511;-80
2023/12/10 03:36:53;;;;;;;30.80;11.80;;;;;;;0.33;100.00;99088.10;108205;1268;22624;-80
2023/12/10 03:39:45;;;;;;;27.10;10.90;;;;;;;0.35;100.00;99090.84;108250;1268;25326;-80
2023/12/10 03:42:36;;;;;;;29.00;10.80;;;;;;;0.35;100.00;99095.05;108456;1260;24252;-80
2023/12/10 03:45:27;;;;;;;26.40;10.00;;;;;;;0.39;100.00;99097.30;108760;1267;22590;-80
2023/12/10 03:48:18;;;;;;;32.00;10.80;;;;;;;0.41;100.00;99098.73;109899;1260;23342;-80
2023/12/10 03:51:10;;;;;;;28.60;10.60;;;;;;;0.41;100.00;99105.80;108160;1257;22527;-80
2023/12/10 03:54:02;;;;;;;30.00;11.80;;;;;;;0.42;100.00;99119.02;108135;1256;22515;-80
2023/12/10 03:56:53;;;;;;;26.80;10.40;;;;;;;0.44;100.00;99124.45;111543;1260;22333;-80
2023/12/10 03:59:44;;;;;;;28.60;10.50;;;;;;;0.45;100.00;99123.46;111479;1267;22715;-80
2023/12/10 04:02:35;;;;;;;30.00;10.00;;;;;;;0.45;100.00;99115.02;111509;1268;22146;-80
2023/12/10 04:05:26;;;;;;;25.60;9.50;;;;;;;0.45;100.00;99114.70;111510;1260;22384;-80
2023/12/10 04:08:17;;;;;;;31.30;11.50;;;;;;;0.43;100.00;99122.27;111550;1243;22082;-80
2023/12/10 04:11:08;;;;;;;30.50;11.00;;;;;;;0.44;100.00;99126.65;111582;1264;22175;-80
2023/12/10 04:13:59;;;;;;;32.70;10.80;;;;;;;0.46;100.00;99136.56;111553;1263;22602;-81
2023/12/10 04:16:50;;;;;;;24.30;9.50;;;;;;;0.47;100.00;99137.71;111594;1267;22368;-80
2023/12/10 04:19:43;;;;;;;30.90;10.80;;;;;;;0.48;100.00;99131.31;111526;1263;22204;-80
2023/12/10 04:22:34;;;;;;;29.60;11.60;;;;;;;0.50;100.00;99122.77;111657;1260;22211;-80
2023/12/10 04:25:25;;;;;;;29.90;11.30;;;;;;;0.50;100.00;99134.39;111661;1260;22514;-80
2023/12/10 04:28:16;;;;;;;30.10;11.10;;;;;;;0.51;100.00;99137.43;111625;1260;22303;-81
2023/12/10 04:31:07;;;;;;;31.10;11.60;;;;;;;0.54;100.00;99131.05;111670;1260;22879;-80
2023/12/10 04:33:58;;;;;;;28.90;11.20;;;;;;;0.57;100.00;99131.44;111475;1268;22154;-81
2023/12/10 04:36:49;;;;;;;33.00;12.10;;;;;;;0.58;100.00;99130.48;108678;1268;23360;-80
2023/12/10 04:39:41;;;;;;;30.40;10.70;;;;;;;0.60;100.00;99140.14;108297;1268;25555;-80
2023/12/10 04:42:32;;;;;;;31.20;11.30;;;;;;;0.61;100.00;99140.64;108305;1268;24244;-80
2023/12/10 04:45:23;;;;;;;33.70;13.20;;;;;;;0.61;100.00;99136.64;108428;1268;22528;-80
2023/12/10 04:48:15;;;;;;;32.90;13.60;;;;;;;0.61;100.00;99135.61;108374;1268;25512;-80
2023/12/10 04:51:07;;;;;;;27.90;12.50;;;;;;;0.62;100.00;99145.86;108465;1266;22666;-80
2023/12/10 04:53:58;;;;;;;30.70;12.40;;;;;;;0.62;100.00;99139.91;111640;1264;22120;-81
2023/12/10 04:56:48;;;;;;;29.30;12.10;;;;;;;0.62;100.00;99147.70;111668;1260;22152;-81
2023/12/10 04:59:39;;;;;;;30.90;13.40;;;;;;;0.60;100.00;99158.02;111649;1260;22162;-81
2023/12/10 05:02:30;;;;;;;32.30;14.70;;;;;;;0.61;100.00;99164.58;111565;1260;22603;-81
2023/12/10 05:05:21;;;;;;;31.20;12.80;;;;;;;0.61;100.00;99168.42;111523;1260;22112;-81
2023/12/10 05:08:12;;;;;;;30.70;13.50;;;;;;;0.61;100.00;99166.70;109349;1268;22768;-80
2023/12/10 05:11:04;;;;;;;30.30;13.60;;;;;;;0.62;100.00;99174.19;108455;1260;22661;-80
2023/12/10 05:13:55;;;;;;;32.00;14.30;;;;;;;0.62;100.00;99173.39;108385;1267;22673;-81
2023/12/10 05:16:46;;;;;;;31.60;14.30;;;;;;;0.62;100.00;99169.12;108352;1263;25616;-81
2023/12/10 05:19:37;;;;;;;31.00;13.90;;;;;;;0.62;100.00;99169.95;108369;1267;23392;-80
2023/12/10 05:22:29;;;;;;;37.90;16.30;;;;;;;0.61;100.00;99165.36;108358;1260;22804;-81
2023/12/10 05:25:20;;;;;;;32.60;14.50;;;;;;;0.61;100.00;99167.56;108449;1260;23927;-80
2023/12/10 05:28:11;;;;;;;36.50;18.70;;;;;;;0.62;100.00;99169.09;108413;1257;22512;-81
2023/12/10 05:31:02;;;;;;;41.30;19.20;;;;;;;0.61;100.00;99173.39;108424;1266;22536;-81
2023/12/10 05:33:53;;;;;;;42.80;21.00;;;;;;;0.59;100.00;99174.29;108650;1268;22523;-81
2023/12/10 05:36:46;;;;;;;44.40;23.60;;;;;;;0.56;100.00;99177.89;108418;1268;24353;-80
2023/12/10 05:39:37;;;;;;;56.00;26.00;;;;;;;0.56;100.00;99183.10;108097;1268;22563;-81
2023/12/10 05:42:28;;;;;;;57.70;26.30;;;;;;;0.56;100.00;99186.02;108376;1257;22739;-81
2023/12/10 05:45:20;;;;;;;47.00;24.40;;;;;;;0.56;100.00;99191.41;108366;1264;22591;-81
2023/12/10 05:48:11;;;;;;;61.60;34.80;;;;;;;0.55;100.00;99191.67;108300;1266;22637;-81
2023/12/10 05:51:03;;;;;;;49.20;25.30;;;;;;;0.55;100.00;99188.84;108217;1268;22683;-81
2023/12/10 05:53:54;;;;;;;45.60;23.20;;;;;;;0.54;100.00;99193.96;108314;1260;22571;-81
2023/12/10 05:56:45;;;;;;;52.80;24.20;;;;;;;0.53;100.00;99201.85;108346;1260;23857;-81
2023/12/10 05:59:37;;;;;;;48.20;21.30;;;;;;;0.52;100.00;99207.13;108295;1264;22647;-81
2023/12/10 06:02:29;;;;;;;42.10;18.30;;;;;;;0.51;100.00;99209.27;108396;1266;22630;-82
2023/12/10 06:05:20;;;;;;;41.40;17.60;;;;;;;0.52;100.00;99203.86;108406;1264;24287;-81
2023/12/10 06:08:11;;;;;;;47.50;20.70;;;;;;;0.52;100.00;99211.54;108359;1247;22516;-81
2023/12/10 06:11:02;;;;;;;41.00;17.40;;;;;;;0.53;100.00;99214.55;108346;1268;24052;-81
2023/12/10 06:13:53;;;;;;;44.60;18.10;;;;;;;0.53;100.00;99217.46;108327;1256;22728;-82
2023/12/10 06:16:44;;;;;;;52.60;22.60;;;;;;;0.54;100.00;99222.52;108354;1263;22580;-81
2023/12/10 06:19:35;;;;;;;56.30;24.70;;;;;;;0.57;100.00;99222.94;108248;1264;24385;-80
2023/12/10 06:22:27;;;;;;;57.40;25.20;;;;;;;0.58;100.00;99235.75;108380;1266;22543;-81
2023/12/10 06:25:18;;;;;;;53.00;22.70;;;;;;;0.60;100.00;99234.36;108429;1261;23256;-80
2023/12/10 06:28:09;;;;;;;52.70;22.20;;;;;;;0.61;100.00;99241.23;108257;1260;22700;-82
2023/12/10 06:31:01;;;;;;;41.00;18.30;;;;;;;0.62;100.00;99237.14;108010;1269;24356;-82
2023/12/10 06:33:52;;;;;;;47.60;20.10;;;;;;;0.61;100.00;99240.61;108173;1269;22557;-81
2023/12/10 06:36:43;;;;;;;43.80;19.20;;;;;;;0.62;100.00;99249.75;108092;1269;22655;-81
2023/12/10 06:39:35;;;;;;;42.80;17.90;;;;;;;0.63;100.00;99254.21;108320;1264;22646;-86
2023/12/10 06:42:54;;;;;;;39.40;16.60;;;;;;;0.65;100.00;99265.29;111313;1268;22126;-87
2023/12/10 06:45:46;;;;;;;42.30;17.00;;;;;;;0.67;100.00;99264.22;111046;1268;22538;-88
2023/12/10 06:49:04;;;;;;;43.60;17.80;;;;;;;0.71;100.00;99274.16;108602;1269;22565;-86
2023/12/10 06:51:55;;;;;;;43.50;17.50;;;;;;;0.72;100.00;99276.77;108386;1269;25467;-86
2023/12/10 06:55:22;;;;;;;47.70;18.20;;;;;;;0.77;100.00;99285.61;108342;1259;27668;-87
2023/12/10 06:58:15;;;;;;;53.60;20.80;;;;;;;0.78;100.00;99294.77;108431;1260;22571;-86
2023/12/10 07:01:11;;;;;;;65.30;26.20;;;;;;;0.80;100.00;99295.96;109094;1268;22531;-87
2023/12/10 07:04:06;;;;;;;70.50;28.80;;;;;;;0.81;100.00;99298.36;111293;1267;22266;-87
2023/12/10 07:06:59;;;;;;;64.50;25.80;;;;;;;0.82;100.00;99305.02;111270;1268;22801;-88
2023/12/10 07:09:52;;;;;;;55.30;22.70;;;;;;;0.84;100.00;99304.15;111446;1263;22326;-87
2023/12/10 07:12:45;;;;;;;46.90;19.90;;;;;;;0.86;100.00;99301.60;111427;1261;22920;-87
2023/12/10 07:15:37;;;;;;;43.70;17.80;;;;;;;0.87;100.00;99303.69;111471;1268;23039;-87
2023/12/10 07:18:31;;;;;;;38.40;16.50;;;;;;;0.90;100.00;99309.42;111447;1266;22317;-88
2023/12/10 07:21:24;;;;;;;39.50;17.40;;;;;;;0.91;100.00;99306.23;111454;1268;23072;-87
2023/12/10 07:24:38;;;;;;;41.50;19.40;;;;;;;0.94;100.00;99308.76;110384;1268;22514;-86
2023/12/10 07:27:30;;;;;;;43.20;19.50;;;;;;;0.96;100.00;99309.14;108790;1265;22587;-86
2023/12/10 07:30:27;;;;;;;41.80;17.30;;;;;;;0.97;100.00;99305.98;109003;1266;22532;-87
2023/12/10 07:33:22;;;;;;;44.00;17.80;;;;;;;0.98;100.00;99308.17;110908;1267;22548;-86
2023/12/10 07:36:17;;;;;;;45.70;18.20;;;;;;;0.99;100.00;99310.47;111469;1266;22150;-87
2023/12/10 07:39:13;;;;;;;38.70;16.50;;;;;;;1.00;100.00;99308.58;108989;1267;22483;-87
2023/12/10 07:42:08;;;;;;;42.40;17.10;;;;;;;1.00;100.00;99312.34;110421;1263;22524;-86
2023/12/10 07:45:05;;;;;;;47.00;18.60;;;;;;;1.01;100.00;99316.48;110579;1266;24915;-86
2023/12/10 07:47:58;;;;;;;41.10;16.20;;;;;;;1.03;100.00;99327.96;111447;1260;23412;-87
2023/12/10 07:50:52;;;;;;;44.80;18.40;;;;;;;1.04;100.00;99331.13;108933;1268;22535;-87
2023/12/10 07:53:55;;;;;;;48.50;18.90;;;;;;;1.06;100.00;99329.52;110426;1268;24211;-88
2023/12/10 07:56:46;;;;;;;44.00;16.60;;;;;;;1.07;100.00;99328.94;108674;1268;26523;-87
2023/12/10 07:59:39;;;;;;;42.20;16.80;;;;;;;1.10;100.00;99331.05;109291;1268;25492;-87
2023/12/10 08:02:33;;;;;;;39.30;15.50;;;;;;;1.10;100.00;99334.51;109263;1268;25226;-90
2023/12/10 08:05:47;;;;;;;41.30;13.90;;;;;;;1.12;100.00;99330.29;111263;1268;22373;-89
2023/12/10 08:08:52;;;;;;;33.30;13.30;;;;;;;1.12;100.00;99342.20;111117;1264;22459;-88
2023/12/10 08:12:06;;;;;;;35.60;13.30;;;;;;;1.15;100.00;99343.80;111171;1261;22300;-87
2023/12/10 08:14:59;;;;;;;33.00;13.90;;;;;;;1.17;100.00;99344.20;111243;1262;22295;-86
2023/12/10 08:17:51;;;;;;;33.50;14.30;;;;;;;1.20;100.00;99346.71;111240;1266;22300;-86
2023/12/10 08:20:46;;;;;;;34.50;13.10;;;;;;;1.24;100.00;99343.44;110390;1267;22556;-87
2023/12/10 08:23:38;;;;;;;31.70;13.40;;;;;;;1.24;100.00;99346.80;109161;1261;22656;-87
2023/12/10 08:26:58;;;;;;;33.50;12.80;;;;;;;1.26;100.00;99354.36;109197;1268;22569;-87
2023/12/10 08:29:50;;;;;;;37.00;16.60;;;;;;;1.29;100.00;99361.42;111179;1260;22304;-87
2023/12/10 08:32:44;;;;;;;48.10;17.90;;;;;;;1.30;100.00;99361.16;111457;1268;22126;-87
2023/12/10 08:35:43;;;;;;;39.20;16.20;;;;;;;1.32;100.00;99361.98;109536;1264;22548;-89
2023/12/10 08:38:59;;;;;;;36.60;15.90;;;;;;;1.32;100.00;99365.83;108967;1268;25565;-90
2023/12/10 08:41:53;;;;;;;34.40;14.10;;;;;;;1.32;100.00;99370.60;109129;1268;22578;-87
2023/12/10 08:44:46;;;;;;;30.40;14.10;;;;;;;1.34;100.00;99371.57;109134;1263;22590;-89
2023/12/10 08:47:37;;;;;;;33.90;14.80;;;;;;;1.35;100.00;99370.53;109473;1260;22629;-89
2023/12/10 08:50:31;;;;;;;31.80;14.40;;;;;;;1.35;100.00;99375.55;109172;1268;22483;-87
2023/12/10 08:53:26;;;;;;;31.20;14.90;;;;;;;1.35;100.00;99374.36;111230;1263;23073;-89
2023/12/10 08:56:19;;;;;;;26.10;11.00;;;;;;;1.38;100.00;99378.45;111224;1268;22336;-90
2023/12/10 08:59:11;;;;;;;22.90;9.70;;;;;;;1.39;100.00;99376.36;111414;1264;22155;-91
2023/12/10 09:02:05;;;;;;;25.50;11.70;;;;;;;1.41;100.00;99382.67;111479;1261;23180;-90
2023/12/10 09:04:57;;;;;;;22.80;8.90;;;;;;;1.43;100.00;99383.80;111405;1262;22186;-90
2023/12/10 09:07:49;;;;;;;23.10;8.70;;;;;;;1.44;100.00;99383.83;111350;1263;23047;-92
2023/12/10 09:10:45;;;;;;;18.40;6.70;;;;;;;1.47;100.00;99379.20;111586;1268;22973;-90
2023/12/10 09:13:47;;;;;;;19.90;7.30;;;;;;;1.48;100.00;99372.65;111495;1264;22229;-90
2023/12/10 09:16:40;;;;;;;23.20;7.50;;;;;;;1.47;100.00;99379.11;111309;1268;22492;-88
2023/12/10 09:19:33;;;;;;;20.20;7.30;;;;;;;1.48;100.00;99380.12;111427;1263;22253;-91
2023/12/10 09:22:26;;;;;;;20.80;7.40;;;;;;;1.47;100.00;99376.35;111556;1268;22222;-91
2023/12/10 09:25:21;;;;;;;22.10;7.00;;;;;;;1.49;100.00;99382.13;111285;1268;23152;-90
2023/12/10 09:28:14;;;;;;;23.10;7.60;;;;;;;1.51;100.00;99383.01;111305;1258;22181;-89
2023/12/10 13:47:38;;;;;;;28.50;8.30;;;;;;;3.63;100.00;99490.98;109455;1271;23052;-88
2023/12/10 13:50:28;;;;;;;26.80;8.40;;;;;;;3.64;100.00;99495.67;110289;1252;22514;-86
2023/12/10 13:53:17;;;;;;;29.30;8.30;;;;;;;3.65;100.00;99501.26;110710;1245;23038;-86
2023/12/10 13:56:08;;;;;;;22.70;8.00;;;;;;;3.64;100.00;99500.68;110830;1245;24146;-85
2023/12/10 13:58:55;;;;;;;31.20;8.90;;;;;;;3.63;100.00;99494.87;113687;1245;22299;-88
2023/12/10 14:01:44;;;;;;;22.10;8.90;;;;;;;3.61;100.00;99492.52;113670;1245;23109;-87
2023/12/10 14:04:32;;;;;;;30.30;8.90;;;;;;;3.60;100.00;99498.50;113688;1245;22243;-87
2023/12/10 14:07:21;;;;;;;24.20;8.30;;;;;;;3.60;100.00;99498.44;113653;1245;22192;-88
2023/12/10 14:10:10;;;;;;;22.50;7.20;;;;;;;3.58;100.00;99500.34;113676;1245;22208;-88
2023/12/10 14:12:59;;;;;;;23.50;6.90;;;;;;;3.56;100.00;99501.83;113659;1245;22139;-89
2023/12/10 14:15:47;;;;;;;25.20;7.10;;;;;;;3.53;100.00;99503.90;113654;1241;22999;-88
2023/12/10 14:18:35;;;;;;;23.10;6.40;;;;;;;3.52;100.00;99508.12;111719;1245;22554;-89
2023/12/10 14:21:27;;;;;;;22.30;6.50;;;;;;;3.51;100.00;99506.42;111831;1245;25244;-89
2023/12/10 14:24:15;;;;;;;20.70;5.70;;;;;;;3.50;100.00;99512.55;111604;1245;22518;-87
2023/12/10 14:27:05;;;;;;;20.10;5.60;;;;;;;3.49;100.00;99516.43;111274;1245;22507;-86
2023/12/10 14:29:54;;;;;;;21.70;5.10;;;;;;;3.49;100.00;99517.30;113679;1245;22201;-89
2023/12/10 14:32:42;;;;;;;19.70;5.20;;;;;;;3.48;100.00;99518.75;113693;1245;23150;-89
2023/12/10 14:35:30;;;;;;;22.30;4.90;;;;;;;3.48;100.00;99519.78;113727;1245;22116;-89
2023/12/10 14:38:18;;;;;;;20.40;4.90;;;;;;;3.47;100.00;99524.08;113671;1245;22223;-88
2023/12/10 14:41:07;;;;;;;16.00;4.40;;;;;;;3.47;100.00;99529.35;113693;1241;22341;-89
2023/12/10 14:43:56;;;;;;;30.10;5.80;;;;;;;3.47;100.00;99529.53;113694;1245;22168;-88
2023/12/10 14:46:45;;;;;;;21.30;4.90;;;;;;;3.47;100.00;99538.09;113701;1245;22310;-89
2023/12/10 14:49:32;;;;;;;24.50;5.60;;;;;;;3.47;100.00;99543.00;113728;1245;22244;-92
2023/12/10 14:52:23;;;;;;;27.50;7.50;;;;;;;3.47;100.00;99538.66;113752;1241;22249;-89
2023/12/10 14:55:12;;;;;;;28.30;9.30;;;;;;;3.47;100.00;99542.59;113722;1245;22959;-90
2023/12/10 14:58:01;;;;;;;36.60;10.80;;;;;;;3.47;100.00;99540.33;113700;1245;22132;-83
2023/12/10 15:00:49;;;;;;;31.80;10.40;;;;;;;3.47;100.00;99539.99;113176;1245;22553;-84
2023/12/10 15:03:37;;;;;;;26.50;8.00;;;;;;;3.47;100.00;99539.84;110463;1245;24233;-83
2023/12/10 15:13:15;;;;;;;23.50;7.40;;;;;;;3.41;100.00;99533.28;113559;1243;22162;31
2023/12/10 15:32:32;;;;;;;22.20;7.50;;;;;;;3.35;100.00;99537.44;112344;1231;23085;-74
2023/12/10 15:38:35;;;;;;;20.30;6.00;;;;;;;3.35;100.00;99544.85;114648;1231;22417;-77
2023/12/10 15:41:23;;;;;;;26.80;6.70;;;;;;;3.35;100.00;99544.37;111341;1242;22519;-74
2023/12/10 15:44:12;;;;;;;24.40;7.90;;;;;;;3.35;100.00;99549.73;111382;1242;22531;-76
2023/12/10 15:47:00;;;;;;;25.70;6.70;;;;;;;3.34;100.00;99543.52;112663;1238;22460;-78
2023/12/10 15:49:48;;;;;;;21.60;6.10;;;;;;;3.34;100.00;99547.72;111569;1239;24326;-76
2023/12/10 15:52:36;;;;;;;20.90;5.90;;;;;;;3.34;100.00;99551.18;111583;1240;23303;-79
2023/12/10 15:55:24;;;;;;;20.00;5.60;;;;;;;3.34;100.00;99551.49;111933;1240;25433;-76
2023/12/10 15:58:12;;;;;;;21.20;5.50;;;;;;;3.34;100.00;99557.23;113262;1239;22511;-78
2023/12/10 16:01:01;;;;;;;21.20;5.80;;;;;;;3.34;100.00;99558.33;111780;1240;24219;-76
2023/12/10 16:03:49;;;;;;;28.70;6.20;;;;;;;3.35;100.00;99559.50;111292;1240;22684;-79
2023/12/10 16:06:38;;;;;;;28.00;7.30;;;;;;;3.35;100.00;99553.83;113124;1238;22511;-77
2023/12/10 16:09:25;;;;;;;24.80;8.30;;;;;;;3.34;100.00;99554.48;111546;1240;22537;-79
2023/12/10 16:12:13;;;;;;;23.50;7.30;;;;;;;3.35;100.00;99552.50;111756;1240;22528;-74
2023/12/10 16:15:00;;;;;;;23.20;7.60;;;;;;;3.35;100.00;99557.21;111801;1240;22525;-78
2023/12/10 16:21:32;;;;;;;27.30;8.90;;;;;;;3.38;100.00;99559.26;111453;1241;24165;-74
2023/12/10 16:24:19;;;;;;;21.40;6.50;;;;;;;3.37;100.00;99556.27;111367;1242;22540;-78
2023/12/10 16:27:07;;;;;;;23.60;6.90;;;;;;;3.38;100.00;99559.31;111493;1239;22530;-77
2023/12/10 16:29:55;;;;;;;20.00;5.70;;;;;;;3.38;100.00;99561.60;111432;1240;23740;-78
2023/12/10 16:32:43;;;;;;;18.80;5.40;;;;;;;3.38;100.00;99563.49;112211;1240;22531;-77
2023/12/10 16:35:14;;;;;;;20.20;5.50;;;;;;;3.36;100.00;99563.63;113404;1240;23177;-74
2023/12/10 16:38:02;;;;;;;23.10;6.10;;;;;;;3.37;100.00;99561.55;112671;1240;22527;-78
2023/12/10 16:40:50;;;;;;;24.90;7.00;;;;;;;3.39;100.00;99564.11;113035;1239;74370;-74
2023/12/10 16:43:38;;;;;;;24.60;7.60;;;;;;;3.40;100.00;99564.70;111804;1238;23946;-77
2023/12/10 16:46:25;;;;;;;25.60;7.60;;;;;;;3.41;100.00;99573.41;111638;1238;22498;-76
2023/12/10 16:49:14;;;;;;;20.70;6.30;;;;;;;3.41;100.00;99571.27;111705;1238;24306;-76
2023/12/10 16:52:02;;;;;;;21.60;5.30;;;;;;;3.41;100.00;99575.14;111658;1238;24169;-75
2023/12/10 16:54:51;;;;;;;17.10;4.70;;;;;;;3.41;100.00;99563.95;111732;1238;22498;-74
2023/12/10 16:57:38;;;;;;;16.80;5.30;;;;;;;3.40;100.00;99568.30;111650;1238;22481;-75
2023/12/10 17:00:26;;;;;;;18.40;4.30;;;;;;;3.40;100.00;99576.28;111606;1238;24172;-76
2023/12/10 17:03:14;;;;;;;20.40;4.30;;;;;;;3.40;100.00;99571.54;111677;1227;22548;-75
2023/12/10 17:05:57;;;;;;;17.70;4.80;;;;;;;3.41;100.00;99569.55;112890;1237;22748;-77
2023/12/10 17:08:45;;;;;;;21.50;5.50;;;;;;;3.42;100.00;99561.95;112423;1238;22640;-75
2023/12/10 17:11:33;;;;;;;18.10;4.40;;;;;;;3.43;100.00;99565.83;112390;1238;22489;-75
2023/12/10 17:14:21;;;;;;;16.50;4.40;;;;;;;3.44;100.00;99568.56;111598;1238;22491;-75
2023/12/10 17:31:20;;;;;;;18.80;5.60;;;;;;;3.44;100.00;99560.50;114210;1237;23898;31
2023/12/10 17:34:09;;;;;;;19.90;6.30;;;;;;;3.45;100.00;99555.26;111441;1228;24558;-78
2023/12/10 17:36:56;;;;;;;21.60;6.70;;;;;;;3.46;100.00;99556.59;111809;1242;23210;-76
2023/12/10 17:39:44;;;;;;;23.90;6.70;;;;;;;3.46;100.00;99554.29;111726;1238;22605;-76
2023/12/10 17:42:32;;;;;;;27.30;8.50;;;;;;;3.46;100.00;99546.48;111212;1242;22660;-75
2023/12/10 17:45:21;;;;;;;24.80;7.60;;;;;;;3.47;100.00;99541.73;111312;1240;22531;-76
2023/12/10 17:48:10;;;;;;;23.00;7.80;;;;;;;3.47;100.00;99541.64;111305;1242;22624;-78
2023/12/10 17:50:59;;;;;;;27.70;13.90;;;;;;;3.47;100.00;99544.48;111150;1242;22488;-76
2023/12/10 17:53:47;;;;;;;16.60;8.20;;;;;;;3.47;100.00;99538.58;111017;1242;23226;-76
2023/12/10 17:56:34;;;;;;;21.60;7.90;;;;;;;3.46;100.00;99539.30;110961;1238;22493;-75
2023/12/10 17:59:22;;;;;;;20.70;6.80;;;;;;;3.46;100.00;99538.05;111129;1242;22592;-75
2023/12/10 18:02:10;;;;;;;20.90;5.30;;;;;;;3.45;100.00;99535.72;111076;1231;22488;-76